createdAt,value
2022-09-12T00:02:13.489Z,2.20
2022-09-12T00:05:01.939Z,2.78
2022-09-12T00:07:49.622Z,2.45
2022-09-12T00:10:39.649Z,2.80
2022-09-12T00:13:26.985Z,2.95
2022-09-12T00:16:18.719Z,2.35
2022-09-12T00:19:07.132Z,2.15
2022-09-12T00:21:55.998Z,2.53
2022-09-12T00:24:43.197Z,2.33
2022-09-12T00:27:30.419Z,2.33
2022-09-12T00:30:17.645Z,2.15
2022-09-12T00:33:04.855Z,2.33
2022-09-12T00:35:53.344Z,2.30
2022-09-12T00:38:42.565Z,2.58
2022-09-12T00:41:32.077Z,2.20
2022-09-12T00:44:55.940Z,2.53
2022-09-12T00:47:44.370Z,2.47
2022-09-12T00:50:33.888Z,2.83
2022-09-12T00:53:21.341Z,2.60
2022-09-12T00:56:10.300Z,2.97
2022-09-12T00:59:02.469Z,2.72
2022-09-12T01:01:51.951Z,2.80
2022-09-12T01:04:40.294Z,2.40
2022-09-12T01:07:27.786Z,2.47
2022-09-12T01:10:14.913Z,2.35
2022-09-12T01:13:06.063Z,2.35
2022-09-12T01:15:54.252Z,2.53
2022-09-12T01:19:02.143Z,2.63
2022-09-12T01:22:00.974Z,2.67
2022-09-12T01:25:01.226Z,2.47
2022-09-12T01:27:59.351Z,2.35
2022-09-12T01:30:52.187Z,2.53
2022-09-12T01:33:55.771Z,2.53
2022-09-12T01:36:51.708Z,2.30
2022-09-12T01:39:48.351Z,2.60
2022-09-12T01:42:42.006Z,2.10
2022-09-12T01:45:33.319Z,2.53
2022-09-12T01:48:25.630Z,2.53
2022-09-12T01:51:21.186Z,2.60
2022-09-12T01:54:11.904Z,2.70
2022-09-12T01:57:04.617Z,2.75
2022-09-12T01:59:58.315Z,2.65
2022-09-12T02:02:51.901Z,2.08
2022-09-12T02:05:43.609Z,2.35
2022-09-12T02:08:33.941Z,2.75
2022-09-12T02:11:22.134Z,2.67
2022-09-12T02:14:13.471Z,2.60
2022-09-12T02:17:07.381Z,2.55
2022-09-12T02:19:59.167Z,2.75
2022-09-12T02:22:50.171Z,2.55
2022-09-12T02:25:40.927Z,2.85
2022-09-12T02:28:33.049Z,2.22
2022-09-12T02:31:26.387Z,2.60
2022-09-12T02:34:27.728Z,2.90
2022-09-12T02:37:26.107Z,3.08
2022-09-12T02:40:15.736Z,2.42
2022-09-12T02:43:04.090Z,2.25
2022-09-12T02:45:51.882Z,2.33
2022-09-12T02:48:52.239Z,2.47
2022-09-12T02:51:39.794Z,2.67
2022-09-12T02:54:27.114Z,2.97
2022-09-12T02:57:22.848Z,2.60
2022-09-12T03:00:11.885Z,2.47
2022-09-12T03:03:21.499Z,3.03
2022-09-12T03:06:15.577Z,2.92
2022-09-12T03:09:12.230Z,2.90
2022-09-12T03:12:11.738Z,3.10
2022-09-12T03:15:13.303Z,2.97
2022-09-12T03:18:17.153Z,2.60
2022-09-12T03:21:10.630Z,3.00
2022-09-12T03:24:10.140Z,2.85
2022-09-12T03:27:02.175Z,2.60
2022-09-12T03:29:51.386Z,2.70
2022-09-12T03:32:45.179Z,2.80
2022-09-12T03:35:32.348Z,2.47
2022-09-12T03:38:20.359Z,2.75
2022-09-12T03:41:07.521Z,2.90
2022-09-12T03:43:56.830Z,3.17
2022-09-12T03:46:44.336Z,2.70
2022-09-12T03:49:32.690Z,2.83
2022-09-12T03:52:20.111Z,2.88
2022-09-12T03:55:08.314Z,2.67
2022-09-12T03:57:56.043Z,2.55
2022-09-12T04:00:44.274Z,2.80
2022-09-12T04:03:31.555Z,2.53
2022-09-12T04:06:23.167Z,2.65
2022-09-12T04:09:10.727Z,2.60
2022-09-12T04:11:57.764Z,2.72
2022-09-12T04:14:45.155Z,3.13
2022-09-12T04:17:32.439Z,3.22
2022-09-12T04:20:20.088Z,2.97
2022-09-12T04:23:08.514Z,2.80
2022-09-12T04:25:55.952Z,3.03
2022-09-12T04:28:43.287Z,2.88
2022-09-12T04:31:30.605Z,2.88
2022-09-12T04:34:18.211Z,2.33
2022-09-12T04:37:05.715Z,2.95
2022-09-12T04:39:57.709Z,2.88
2022-09-12T04:42:44.786Z,3.17
2022-09-12T04:45:32.099Z,2.60
2022-09-12T04:48:19.266Z,2.57
2022-09-12T04:51:13.354Z,3.15
2022-09-12T04:54:02.447Z,3.30
2022-09-12T04:56:52.501Z,3.22
2022-09-12T04:59:39.907Z,3.03
2022-09-12T05:02:27.325Z,3.30
2022-09-12T05:05:14.661Z,3.08
2022-09-12T05:08:01.961Z,3.15
2022-09-12T05:10:49.178Z,3.22
2022-09-12T05:13:38.806Z,3.55
2022-09-12T05:16:28.294Z,3.28
2022-09-12T05:19:15.468Z,3.78
2022-09-12T05:22:02.960Z,3.67
2022-09-12T05:24:50.842Z,3.90
2022-09-12T05:27:38.201Z,3.72
2022-09-12T05:30:26.931Z,3.47
2022-09-12T05:33:14.563Z,3.75
2022-09-12T05:36:01.859Z,3.53
2022-09-12T05:38:49.469Z,3.85
2022-09-12T05:41:37.818Z,3.60
2022-09-12T05:44:25.538Z,4.00
2022-09-12T05:47:14.202Z,3.63
2022-09-12T05:50:01.600Z,4.22
2022-09-12T05:52:48.614Z,4.53
2022-09-12T05:55:35.511Z,4.03
2022-09-12T05:58:23.000Z,3.85
2022-09-12T06:01:13.024Z,3.92
2022-09-12T06:04:04.570Z,3.95
2022-09-12T06:06:51.882Z,3.88
2022-09-12T06:09:39.126Z,4.10
2022-09-12T06:12:26.840Z,4.18
2022-09-12T06:15:14.373Z,3.95
2022-09-12T06:18:01.661Z,3.45
2022-09-12T06:20:50.241Z,4.10
2022-09-12T06:23:38.124Z,3.65
2022-09-12T06:26:25.785Z,4.20
2022-09-12T06:29:13.380Z,3.88
2022-09-12T06:32:00.652Z,4.22
2022-09-12T06:34:48.625Z,3.97
2022-09-12T06:37:37.031Z,3.75
2022-09-12T06:40:24.279Z,3.97
2022-09-12T06:43:13.484Z,4.35
2022-09-12T06:46:01.289Z,4.40
2022-09-12T06:48:49.046Z,4.65
2022-09-12T06:51:36.207Z,4.22
2022-09-12T06:54:26.397Z,4.53
2022-09-12T06:57:13.858Z,4.07
2022-09-12T07:00:01.040Z,4.35
2022-09-12T07:02:48.428Z,4.50
2022-09-12T07:05:35.762Z,3.90
2022-09-12T07:08:23.355Z,4.13
2022-09-12T07:11:14.029Z,4.32
2022-09-12T07:14:03.116Z,4.53
2022-09-12T07:16:50.028Z,4.90
2022-09-12T07:19:37.675Z,4.60
2022-09-12T07:22:25.215Z,4.40
2022-09-12T07:25:12.399Z,4.20
2022-09-12T07:28:01.023Z,4.28
2022-09-12T07:30:48.188Z,3.72
2022-09-12T07:33:36.675Z,3.22
2022-09-12T07:36:26.238Z,3.70
2022-09-12T07:39:13.153Z,3.63
2022-09-12T07:42:00.795Z,3.67
2022-09-12T07:44:50.229Z,3.47
2022-09-12T07:47:37.456Z,3.40
2022-09-12T07:50:24.834Z,2.85
2022-09-12T07:53:12.121Z,3.38
2022-09-12T07:55:59.346Z,3.17
2022-09-12T07:58:47.352Z,3.35
2022-09-12T08:01:36.330Z,2.60
2022-09-12T08:04:23.622Z,2.78
2022-09-12T08:07:10.640Z,2.47
2022-09-12T08:09:57.919Z,2.42
2022-09-12T08:12:45.059Z,2.50
2022-09-12T08:15:32.434Z,2.65
2022-09-12T08:18:21.004Z,2.17
2022-09-12T08:21:10.807Z,2.10
2022-09-12T08:24:00.703Z,1.75
2022-09-12T08:26:48.018Z,2.03
2022-09-12T08:29:35.405Z,2.30
2022-09-12T08:32:22.578Z,1.70
2022-09-12T08:35:11.191Z,1.92
2022-09-12T08:37:59.179Z,2.30
2022-09-12T08:40:54.160Z,1.90
2022-09-12T08:43:58.837Z,2.30
2022-09-12T08:46:55.318Z,2.10
2022-09-12T08:49:51.511Z,2.47
2022-09-12T08:52:47.409Z,2.03
2022-09-12T08:55:36.630Z,1.80
2022-09-12T08:58:25.806Z,1.60
2022-09-12T09:01:22.292Z,1.58
2022-09-12T09:04:36.199Z,1.40
2022-09-12T09:07:39.636Z,1.20
2022-09-12T09:10:38.181Z,1.25
2022-09-12T09:13:57.989Z,1.02
2022-09-12T09:16:49.812Z,1.40
2022-09-12T09:19:46.660Z,1.30
2022-09-12T09:22:45.851Z,1.13
2022-09-12T09:25:43.763Z,1.13
2022-09-12T09:28:37.483Z,1.40
2022-09-12T09:31:26.631Z,1.17
2022-09-12T09:34:16.776Z,1.10
2022-09-12T09:37:14.854Z,1.17
2022-09-12T09:40:12.005Z,1.50
2022-09-12T09:43:05.631Z,1.10
2022-09-12T09:45:54.039Z,1.10
2022-09-12T09:48:44.509Z,1.10
2022-09-12T09:51:36.051Z,1.10
2022-09-12T09:54:27.283Z,1.10
2022-09-12T09:57:42.074Z,1.00
2022-09-12T10:00:32.746Z,1.02
2022-09-12T10:03:31.722Z,1.10
2022-09-12T10:06:30.930Z,1.10
2022-09-12T10:09:24.950Z,1.08
2022-09-12T10:12:26.079Z,0.90
2022-09-12T10:15:19.582Z,1.00
2022-09-12T10:18:08.177Z,1.00
2022-09-12T10:20:55.486Z,0.98
2022-09-12T10:23:44.427Z,0.85
2022-09-12T10:26:38.445Z,0.93
2022-09-12T10:29:29.602Z,0.90
2022-09-12T10:32:29.981Z,0.90
2022-09-12T10:35:22.673Z,0.70
2022-09-12T10:38:17.906Z,0.85
2022-09-12T10:41:08.552Z,1.00
2022-09-12T10:44:07.969Z,1.00
2022-09-12T10:46:55.725Z,1.08
2022-09-12T10:49:43.218Z,1.00
2022-09-12T10:52:32.064Z,1.50
2022-09-12T10:55:23.809Z,0.90
2022-09-12T10:58:29.628Z,1.00
2022-09-12T11:01:27.248Z,1.00
2022-09-12T11:04:26.546Z,0.77
2022-09-12T11:07:35.290Z,1.00
2022-09-12T11:10:36.352Z,0.85
2022-09-12T11:13:47.105Z,1.00
2022-09-12T11:16:43.000Z,0.90
2022-09-12T11:19:55.116Z,1.30
2022-09-12T11:23:04.488Z,0.90
2022-09-12T11:26:00.953Z,1.00
2022-09-12T11:28:57.456Z,1.00
2022-09-12T11:32:07.237Z,1.20
2022-09-12T11:35:05.117Z,1.00
2022-09-12T11:38:40.370Z,0.90
2022-09-12T11:41:33.750Z,0.90
2022-09-12T11:44:25.562Z,1.00
2022-09-12T11:47:14.685Z,1.00
2022-09-12T11:50:07.914Z,1.00
2022-09-12T11:52:58.947Z,0.90
2022-09-12T11:55:54.203Z,1.08
2022-09-12T11:58:45.421Z,0.98
2022-09-12T12:01:43.873Z,0.90
2022-09-12T12:04:39.150Z,1.00
2022-09-12T12:07:26.225Z,1.02
2022-09-12T12:10:28.282Z,1.00
2022-09-12T12:13:20.886Z,0.93
2022-09-12T12:16:19.793Z,1.00
2022-09-12T12:19:19.947Z,1.00
2022-09-12T12:22:09.998Z,0.95
2022-09-12T12:25:05.483Z,0.93
2022-09-12T12:27:55.857Z,0.88
2022-09-12T12:31:02.277Z,1.10
2022-09-12T12:34:06.263Z,1.10
2022-09-12T12:36:53.541Z,1.00
2022-09-12T12:40:02.805Z,0.88
2022-09-12T12:43:06.125Z,0.82
2022-09-12T12:46:12.842Z,0.68
2022-09-12T12:49:09.427Z,0.90
2022-09-12T12:51:58.408Z,0.95
2022-09-12T12:54:56.463Z,0.98
2022-09-12T12:57:49.925Z,1.00
2022-09-12T13:00:40.130Z,1.38
2022-09-12T13:03:30.319Z,1.00
2022-09-12T13:06:35.294Z,0.77
2022-09-12T13:09:25.910Z,0.70
2022-09-12T13:12:20.758Z,1.00
2022-09-12T13:15:41.305Z,0.82
2022-09-12T13:18:31.170Z,0.82
2022-09-12T13:21:20.626Z,1.00
2022-09-12T13:24:17.083Z,1.15
2022-09-12T13:27:04.408Z,0.90
2022-09-12T13:30:06.416Z,0.85
2022-09-12T13:32:54.281Z,1.10
2022-09-12T13:35:53.118Z,0.80
2022-09-12T13:38:54.333Z,1.00
2022-09-12T13:42:16.002Z,0.88
2022-09-12T13:45:06.529Z,0.82
2022-09-12T13:47:58.751Z,1.00
2022-09-12T13:50:52.479Z,1.00
2022-09-12T13:53:47.790Z,0.98
2022-09-12T13:56:35.171Z,0.90
2022-09-12T13:59:24.123Z,0.90
2022-09-12T14:02:21.069Z,0.90
2022-09-12T14:05:20.018Z,1.00
2022-09-12T14:08:09.389Z,0.95
2022-09-12T14:10:56.573Z,1.00
2022-09-12T14:13:44.149Z,0.95
2022-09-12T14:16:38.865Z,1.15
2022-09-12T14:19:27.163Z,0.90
2022-09-12T14:22:18.116Z,1.08
2022-09-12T14:25:10.239Z,1.02
2022-09-12T14:27:58.636Z,0.90
2022-09-12T14:31:00.028Z,1.00
2022-09-12T14:33:50.409Z,1.08
2022-09-12T14:36:43.039Z,1.00
2022-09-12T14:39:34.429Z,1.10
2022-09-12T14:42:23.813Z,1.40
2022-09-12T14:45:18.493Z,1.20
2022-09-12T14:48:05.782Z,1.00
2022-09-12T14:50:55.035Z,1.10
2022-09-12T14:53:49.712Z,1.10
2022-09-12T14:56:42.243Z,0.82
2022-09-12T14:59:31.839Z,1.40
2022-09-12T15:02:25.747Z,1.00
2022-09-12T15:05:19.593Z,1.33
2022-09-12T15:08:16.144Z,1.10
2022-09-12T15:11:03.399Z,2.75
2022-09-12T15:13:51.180Z,1.02
2022-09-12T15:16:38.324Z,1.38
2022-09-12T15:19:25.372Z,1.10
2022-09-12T15:22:13.130Z,2.20
2022-09-12T15:25:01.943Z,1.00
2022-09-12T15:27:51.975Z,0.80
2022-09-12T15:30:39.063Z,1.08
2022-09-12T15:33:26.497Z,1.02
2022-09-12T15:36:17.600Z,0.90
2022-09-12T15:39:04.995Z,0.90
2022-09-12T15:41:53.939Z,1.30
2022-09-12T15:44:41.278Z,0.90
2022-09-12T15:47:28.348Z,1.27
2022-09-12T15:50:15.793Z,1.02
2022-09-12T15:53:02.963Z,0.98
2022-09-12T15:55:49.879Z,1.15
2022-09-12T15:58:54.614Z,1.20
2022-09-12T16:01:45.305Z,1.00
2022-09-12T16:04:32.964Z,0.95
2022-09-12T16:07:19.958Z,1.00
2022-09-12T16:10:08.057Z,0.93
2022-09-12T16:12:55.417Z,1.05
2022-09-12T16:15:43.971Z,0.93
2022-09-12T16:18:31.056Z,1.20
2022-09-12T16:21:18.919Z,0.90
2022-09-12T16:24:06.702Z,1.05
2022-09-12T16:26:55.913Z,1.20
2022-09-12T16:29:46.225Z,1.15
2022-09-12T16:32:34.845Z,1.08
2022-09-12T16:35:22.502Z,0.90
2022-09-12T16:38:09.486Z,1.00
2022-09-12T16:41:01.157Z,1.10
2022-09-12T16:43:48.761Z,1.05
2022-09-12T16:46:35.941Z,1.25
2022-09-12T16:49:24.537Z,1.17
2022-09-12T16:52:14.155Z,1.20
2022-09-12T16:55:01.251Z,0.90
2022-09-12T16:57:49.357Z,0.90
2022-09-12T17:00:36.697Z,1.20
2022-09-12T17:03:24.064Z,1.10
2022-09-12T17:06:14.295Z,1.40
2022-09-12T17:09:03.546Z,1.30
2022-09-12T17:11:52.387Z,1.30
2022-09-12T17:14:39.885Z,1.20
2022-09-12T17:17:27.206Z,1.50
2022-09-12T17:20:14.474Z,1.30
2022-09-12T17:23:07.687Z,1.40
2022-09-12T17:25:56.381Z,1.10
2022-09-12T17:28:43.917Z,1.38
2022-09-12T17:31:31.377Z,1.15
2022-09-12T17:34:18.923Z,1.60
2022-09-12T17:37:05.995Z,1.77
2022-09-12T17:39:54.607Z,1.30
2022-09-12T17:42:43.227Z,1.38
2022-09-12T17:45:30.456Z,1.23
2022-09-12T17:48:17.803Z,1.50
2022-09-12T17:51:09.398Z,1.27
2022-09-12T17:54:00.038Z,1.80
2022-09-12T17:56:51.194Z,1.80
2022-09-12T17:59:38.383Z,1.90
2022-09-12T18:02:24.707Z,2.20
2022-09-12T18:05:11.788Z,1.65
2022-09-12T18:07:59.121Z,2.15
2022-09-12T18:10:46.346Z,2.35
2022-09-12T18:13:35.082Z,1.75
2022-09-12T18:16:22.669Z,1.77
2022-09-12T18:19:11.023Z,1.60
2022-09-12T18:21:58.397Z,1.42
2022-09-12T18:24:45.310Z,1.90
2022-09-12T18:27:32.203Z,1.75
2022-09-12T18:30:22.907Z,1.83
2022-09-12T18:33:10.004Z,1.98
2022-09-12T18:35:57.208Z,2.30
2022-09-12T18:38:45.274Z,2.25
2022-09-12T18:41:32.458Z,2.00
2022-09-12T18:44:19.762Z,2.28
2022-09-12T18:47:09.303Z,1.88
2022-09-12T18:49:56.691Z,1.90
2022-09-12T18:52:43.803Z,2.00
2022-09-12T18:55:32.937Z,2.05
2022-09-12T18:58:20.276Z,2.15
2022-09-12T19:01:11.658Z,2.42
2022-09-12T19:04:00.837Z,2.42
2022-09-12T19:06:49.073Z,2.20
2022-09-12T19:09:35.986Z,2.63
2022-09-12T19:12:23.177Z,2.70
2022-09-12T19:15:10.773Z,2.80
2022-09-12T19:17:57.668Z,2.40
2022-09-12T19:20:50.830Z,2.70
2022-09-12T19:23:38.188Z,2.40
2022-09-12T19:26:25.795Z,2.58
2022-09-12T19:29:14.348Z,2.60
2022-09-12T19:32:01.679Z,2.67
2022-09-12T19:34:48.986Z,2.90
2022-09-12T19:37:37.791Z,3.10
2022-09-12T19:40:25.074Z,2.67
2022-09-12T19:43:12.350Z,3.20
2022-09-12T19:46:00.470Z,3.20
2022-09-12T19:48:48.854Z,3.22
2022-09-12T19:51:35.886Z,3.10
2022-09-12T19:54:24.352Z,3.08
2022-09-12T19:57:11.589Z,3.38
2022-09-12T19:59:58.869Z,3.13
2022-09-12T20:02:51.364Z,3.03
2022-09-12T20:05:42.638Z,4.00
2022-09-12T20:08:30.309Z,2.88
2022-09-12T20:11:20.748Z,3.40
2022-09-12T20:14:08.095Z,4.75
2022-09-12T20:16:55.102Z,4.38
2022-09-12T20:19:42.530Z,5.88
2022-09-12T20:22:29.561Z,4.22
2022-09-12T20:25:18.191Z,3.92
2022-09-12T20:28:06.667Z,4.15
2022-09-12T20:30:54.142Z,3.60
2022-09-12T20:33:41.421Z,3.60
2022-09-12T20:36:28.894Z,2.92
2022-09-12T20:39:18.164Z,2.92
2022-09-12T20:42:05.380Z,3.78
2022-09-12T20:44:53.863Z,4.65
2022-09-12T20:47:41.126Z,4.20
2022-09-12T20:50:28.316Z,4.00
2022-09-12T20:53:15.840Z,3.88
2022-09-12T20:56:05.256Z,4.20
2022-09-12T20:58:52.972Z,6.85
2022-09-12T21:01:41.754Z,4.82
2022-09-12T21:04:29.089Z,4.93
2022-09-12T21:07:16.122Z,4.30
2022-09-12T21:10:03.356Z,4.95
2022-09-12T21:12:50.725Z,4.20
2022-09-12T21:15:38.435Z,5.57
2022-09-12T21:18:27.087Z,4.82
2022-09-12T21:21:16.053Z,5.00
2022-09-12T21:24:04.409Z,5.32
2022-09-12T21:26:51.702Z,5.07
2022-09-12T21:29:39.184Z,5.25
2022-09-12T21:32:26.619Z,5.20
2022-09-12T21:35:15.428Z,5.57
2022-09-12T21:38:02.711Z,5.38
2022-09-12T21:40:49.838Z,4.65
2022-09-12T21:43:37.834Z,4.80
2022-09-12T21:46:25.114Z,4.45
2022-09-12T21:49:12.082Z,4.57
2022-09-12T21:52:00.818Z,4.13
2022-09-12T21:54:47.725Z,4.45
2022-09-12T21:57:35.516Z,4.07
2022-09-12T22:00:23.231Z,3.83
2022-09-12T22:03:11.486Z,3.60
2022-09-12T22:05:59.609Z,3.58
2022-09-12T22:08:47.731Z,3.15
2022-09-12T22:11:34.931Z,3.40
2022-09-12T22:14:22.032Z,3.08
2022-09-12T22:17:09.343Z,2.80
2022-09-12T22:19:56.502Z,3.17
2022-09-12T22:23:01.218Z,2.90
2022-09-12T22:25:49.851Z,3.22
2022-09-12T22:28:36.573Z,2.90
2022-09-12T22:31:23.715Z,3.20
2022-09-12T22:34:10.702Z,2.85
2022-09-12T22:36:57.956Z,2.80
2022-09-12T22:39:45.150Z,2.70
2022-09-12T22:42:33.707Z,2.88
2022-09-12T22:45:20.958Z,3.00
2022-09-12T22:48:09.349Z,2.90
2022-09-12T22:50:56.635Z,2.50
2022-09-12T22:53:43.726Z,2.80
2022-09-12T22:56:31.158Z,2.58
2022-09-12T22:59:20.223Z,2.65
2022-09-12T23:02:07.825Z,2.67
2022-09-12T23:04:54.786Z,2.90
2022-09-12T23:07:42.022Z,3.13
2022-09-12T23:10:29.044Z,2.65
2022-09-12T23:13:16.837Z,2.42
2022-09-12T23:16:07.935Z,2.80
2022-09-12T23:18:54.964Z,2.63
2022-09-12T23:21:42.041Z,2.95
2022-09-12T23:24:29.072Z,2.97
2022-09-12T23:27:15.714Z,2.60
2022-09-12T23:30:02.656Z,3.10
2022-09-12T23:32:51.214Z,2.88
2022-09-12T23:35:38.315Z,3.00
2022-09-12T23:38:25.955Z,2.75
2022-09-12T23:41:14.413Z,3.33
2022-09-12T23:44:01.710Z,2.97
2022-09-12T23:46:48.450Z,3.33
2022-09-12T23:49:37.158Z,2.75
2022-09-12T23:52:24.424Z,3.03
2022-09-12T23:55:11.576Z,3.10
2022-09-12T23:57:58.811Z,3.28
